Pagina principale
METAR-TAF:

METAR-TAF

Aeroporti :

Aeroporto di Zara-Zemonico

Zara, Croazia

latitudine: 44-06N, longitudine: 015-21E, altezza: 82 m

Osservazione

Il bollettino è stato emesso 21 minuti fa, alle 10:00 UTC
Vento 8 kt da est, variando fra nord-est e est/sud-est
Temperature 12°C
Umidità 38%
Pressione 1015 hPa
Visibilità 10 km o più
nessuna nube inferiore a 1500 m e nessun cumulonembo

METAR: LDZD 091000Z 08008KT 050V110 CAVOK 12/M02 Q1015 NOSIG

Ora: 11:21 (10:21 UTC)

Previsione

Il bollettino è stato emesso 4 ore e 56 minuti fa, alle 05:25 UTC
Previsione valida dal 09 alle 06 UTC al 10 alle 06 UTC
Vento 10 kt da est/nord-est
Visibilità 10 km o più
Poco nuvoloso ad un'altezza di 4000 ft
Evoluzione graduale
dal 09 alle 12 UTC al 09 alle 14 UTC
Vento 5 kt da est/nord-est
Evoluzione graduale
dal 10 alle 02 UTC al 10 alle 04 UTC
Vento 12 kt da nord-est

TAF: LDZD 090525Z 0906/1006 07010KT 9999 FEW040 TX12/0913Z TN03/1000Z BECMG 0912/0914 07005KT BECMG 1002/1004 04012KT

Osservazioni e previsioni meteorologiche di più di 4000 aeroporti (messaggi METAR e TAF).

Le stazioni disponibili sono rappresentate dai dischi gialli e rossi sulla carta.

Puntare il mouse per vedere il nome della stazione.

Clicca sopra per visualizzare le osservazioni e previsioni meteorologiche.

Per cambiare la mappa : fare clic sui pulsanti verdi con una croce nera per ingrandire, il pulsante verde con un trattino per diminuire, o sulla freccia verde per le mappe adiacenti.


METAR-TAF: